Flight Track Log - Related Links

Times and Time Zones

All times are in EDT time to prevent confusion due to time zone crossing. See the UAL4234 flight status page for this flight to view local times or setup timezone preferences in your user account.

Time Position Orientation Groundspeed Altitude Reporting Facility
EDT Latitude Longitude Course Direction KTS km/h feet Rate Location/Type
Mon 17:17:54 29.9569 -95.3369 97° East 174 322 800  Level Houston Center
Mon 17:18:43 29.9422 -95.2928 111° Southeast 209 388 2.100 1.707 Climbing Houston Center
Mon 17:19:57 29.9286 -95.2164 102° East 221 409 4.300 2.118 Climbing Houston Center
Mon 17:20:59 29.9217 -95.1122 94° East 264 489 6.900 2.323 Climbing Houston Center
Mon 17:21:00 29.9108 -94.7956 95° East  Level FlightAware Approximate
Mon 17:22:00 29.8993 -94.6601 97° East  Level FlightAware Approximate
Mon 17:22:01 29.9150 -95.0222 95° East 276 512 9.100  Level Houston Center
Mon 17:23:00 29.8844 -94.5251 97° East  Level FlightAware Approximate
Mon 17:23:05 29.9083 -94.9250 94° East 294 544 10.400  Level Houston Center
Mon 17:24:06 29.9000 -94.8131 95° East 332 615 11.400 1.122 Climbing Houston Center
Mon 17:25:08 29.8906 -94.6931 95° East 364 674 12.700 1.306 Climbing Houston Center
Mon 17:26:10 29.8814 -94.5706 95° East 378 700 14.100 1.306 Climbing Houston Center
Mon 17:27:12 29.8719 -94.4450 95° East 389 721 15.400 1.258 Climbing Houston Center
Mon 17:28:14 29.8597 -94.2886 95° East 408 756 16.700 1.210 Climbing Houston Center
Mon 17:29:16 29.8564 -94.1569 92° East 414 766 17.900 1.258 Climbing Houston Center
Mon 17:30:18 29.8539 -94.0233 91° East 419 776 19.300 1.403 Climbing Houston Center
Mon 17:31:20 29.8697 -93.8922 82° East 416 771 20.800 1.258 Climbing Houston Center
Mon 17:32:22 29.8828 -93.7594 83° East 417 772 21.900 960 Climbing Houston Center
Mon 17:33:25 29.8975 -93.6233 83° East 430 797 22.800 816 Climbing Houston Center
Mon 17:34:27 29.9133 -93.4525 84° East 446 826 23.600 1.210 Climbing Houston Center
Mon 17:35:29 29.9292 -93.3131 83° East 444 822 25.300 1.790 Climbing Houston Center
Mon 17:36:31 29.9431 -93.1708 84° East 418 774 27.300 1.645 Climbing Houston Center
Mon 17:37:33 29.9564 -93.0431 83° East 405 750 28.700 1.210 Climbing Houston Center
Mon 17:38:35 29.9692 -92.9142 83° East 405 750 29.800 1.065 Climbing Houston Center
Mon 17:39:37 29.9811 -92.7836 84° East 412 763 30.900 1.113 Climbing Houston Center
Mon 17:40:39 29.9908 -92.6519 85° East 415 769 32.100 1.355 Climbing Houston Center
Mon 17:41:41 30.0158 -92.5019 79° East 403 747 33.700 1.200 Climbing Houston Center
Mon 17:42:44 30.0386 -92.3772 78° East 400 740 34.600 624 Climbing Houston Center
Mon 17:43:46 30.0617 -92.2544 78° East 396 734 35.000 194 Climbing Houston Center
Mon 17:44:48 30.0856 -92.1233 78° East 410 760 35.000  Level Houston Center
Mon 17:45:50 30.1117 -91.9831 78° East 437 810 35.000  Level Houston Center
Mon 17:46:52 30.1450 -91.8069 78° East 463 858 35.000  Level Houston Center
Mon 17:47:54 30.1725 -91.6581 78° East 474 877 35.000  Level Houston Center
Mon 17:48:56 30.2031 -91.5039 77° East 484 896 35.000  Level Houston Center
Mon 17:49:58 30.2306 -91.3497 78° East 490 908 35.000  Level Houston Center
Mon 17:51:00 30.2553 -91.1947 80° East 491 909 35.000  Level Houston Center
Mon 17:52:03 30.2842 -91.0425 78° East 488 904 35.000  Level Houston Center
Mon 17:53:05 30.3164 -90.8558 79° East 492 911 35.000  Level Houston Center
Mon 17:54:07 30.3428 -90.7003 79° East 493 912 35.000  Level Houston Center
Mon 17:55:09 30.3689 -90.5453 79° East 492 911 35.000  Level Houston Center
Mon 17:56:11 30.3969 -90.3889 78° East 495 917 35.000  Level Houston Center
Mon 17:57:13 30.4231 -90.2322 79° East 496 919 35.000  Level Houston Center
Mon 17:58:15 30.4492 -90.0764 79° East 491 909 35.000  Level Houston Center
Mon 17:59:17 30.4758 -89.9183 79° East 493 912 35.000  Level Houston Center
Mon 18:00:19 30.5097 -89.7264 78° East 494 914 35.000  Level Houston Center
Mon 18:01:22 30.5336 -89.5692 80° East 490 908 35.000  Level Houston Center
Mon 18:02:24 30.5583 -89.4158 79° East 481 892 35.000  Level Houston Center
Mon 18:03:26 30.6008 -89.2706 71° East 480 888 35.000  Level Houston Center
Mon 18:04:28 30.6708 -89.1444 57° Northeast 467 864 35.000  Level Houston Center
Mon 18:05:30 30.7422 -89.0189 56° Northeast 465 861 35.000  Level Houston Center
Mon 18:06:32 30.8253 -88.8708 57° Northeast 469 869 35.000  Level Houston Center
Mon 18:07:34 30.8992 -88.7403 57° Northeast 479 887 35.000  Level Houston Center
Mon 18:08:36 30.9764 -88.6039 57° Northeast 487 901 35.000  Level Houston Center
Mon 18:09:38 31.0514 -88.4722 56° Northeast 487 901 35.000  Level Houston Center
Mon 18:10:40 31.1233 -88.3392 58° Northeast 485 898 35.000  Level Houston Center
Mon 18:11:42 31.1994 -88.2078 56° Northeast 490 908 35.000  Level Houston Center
Mon 18:12:44 31.2767 -88.0706 57° Northeast 482 893 35.000  Level Houston Center
Mon 18:13:46 31.3494 -87.9381 57° Northeast 484 896 35.000  Level Houston Center
Mon 18:14:48 31.4361 -87.7794 57° Northeast 481 892 35.000  Level Houston Center
Mon 18:15:50 31.5083 -87.6475 57° Northeast 481 892 35.000  Level Houston Center
Mon 18:16:51 31.5811 -87.5075 59° Northeast 483 895 35.000  Level Atlanta Center
Mon 18:17:51 31.6372 -87.3658 65° Northeast 477 884 35.000  Level Atlanta Center
Mon 18:18:51 31.6819 -87.2503 66° East 477 884 35.000  Level Atlanta Center
Mon 18:19:51 31.7403 -87.0889 67° East 482 893 35.000  Level Atlanta Center
Mon 18:20:51 31.7939 -86.9417 67° East 482 893 35.000  Level Atlanta Center
Mon 18:21:51 31.8514 -86.7992 65° Northeast 482 893 35.000  Level Atlanta Center
Mon 18:22:51 31.9047 -86.6517 67° East 477 884 35.000  Level Atlanta Center
Mon 18:23:51 31.9725 -86.4969 63° Northeast 477 884 35.000  Level Atlanta Center
Mon 18:24:51 32.0128 -86.3658 70° East 482 893 35.000  Level Atlanta Center
Mon 18:25:51 32.0633 -86.2200 68° East 476 882 35.000  Level Atlanta Center
Mon 18:26:51 32.1222 -86.0744 64° Northeast 476 882 35.000  Level Atlanta Center
Mon 18:27:51 32.1725 -85.9283 68° East 476 882 35.000  Level Atlanta Center
Mon 18:28:51 32.2356 -85.7650 65° Northeast 482 893 35.000  Level Atlanta Center
Mon 18:29:51 32.2897 -85.6186 66° East 482 893 35.000  Level Atlanta Center
Mon 18:30:51 32.3414 -85.4744 67° East 482 893 35.000  Level Atlanta Center
Mon 18:31:51 32.3975 -85.3278 66° East 477 884 35.000  Level Atlanta Center
Mon 18:32:51 32.4469 -85.1833 68° East 477 884 35.000  Level Atlanta Center
Mon 18:33:51 32.5044 -85.0389 65° Northeast 477 884 35.000  Level Atlanta Center
Mon 18:34:51 32.5514 -84.8864 70° East 477 884 35.000  Level Atlanta Center
Mon 18:35:51 32.6044 -84.7614 63° Northeast 469 869 35.000  Level Atlanta Center
Mon 18:36:51 32.6553 -84.6111 68° East 474 877 35.000  Level Atlanta Center
Mon 18:37:51 32.7081 -84.4633 67° East 479 887 35.000  Level Atlanta Center
Mon 18:38:51 32.7608 -84.3156 67° East 479 887 35.000  Level Atlanta Center
Mon 18:39:51 32.8153 -84.1672 66° East 474 877 35.000  Level Atlanta Center
Mon 18:40:51 32.8717 -84.0042 68° East 480 888 35.000  Level Atlanta Center
Mon 18:41:51 32.9236 -83.8558 67° East 480 888 35.000  Level Atlanta Center
Mon 18:42:51 32.9756 -83.7069 67° East 475 880 35.000  Level Atlanta Center
Mon 18:43:51 33.0272 -83.5581 67° East 475 880 35.000  Level Atlanta Center
Mon 18:44:51 33.0706 -83.4267 68° East 470 871 35.000  Level Atlanta Center
Mon 18:45:51 33.1239 -83.2650 68° East 475 880 35.000  Level Atlanta Center
Mon 18:46:51 33.1750 -83.1156 68° East 475 880 35.000  Level Atlanta Center
Mon 18:47:51 33.2239 -82.9686 68° East 475 880 35.000 -267 Level Atlanta Center
Mon 18:49:00 33.2742 -82.8146 69° East  Level FlightAware Approximate
Mon 18:49:51 33.3233 -82.6714 69° East 475 880 34.200  Level Atlanta Center
Mon 18:50:51 33.3758 -82.5214 67° East 475 880 33.200 -600 Descending Atlanta Center
Mon 18:51:51 33.4239 -82.3736 69° East 475 880 33.000 -70 Descending Atlanta Center
Mon 18:53:43 33.5208 -82.0853 68° East 479 887 33.000  Level Jacksonville Center
Mon 18:54:43 33.5697 -81.9378 68° East 479 887 33.000  Level Jacksonville Center
Mon 18:55:43 33.6417 -81.7975 58° Northeast 479 887 33.000  Level Jacksonville Center
Mon 18:56:43 33.7283 -81.6714 50° Northeast 484 896 33.000  Level Jacksonville Center
Mon 18:57:43 33.8147 -81.5453 50° Northeast 484 896 33.000  Level Jacksonville Center
Mon 18:58:43 33.8967 -81.4214 51° Northeast 479 887 33.000  Level Jacksonville Center
Mon 18:59:44 33.9808 -81.2947 51° Northeast 474 877 33.000  Level Jacksonville Center
Mon 19:00:43 34.0647 -81.1703 51° Northeast 474 877 33.000  Level Jacksonville Center
Mon 19:01:44 34.1464 -81.0458 52° Northeast 474 877 33.000  Level Jacksonville Center
Mon 19:02:43 34.2300 -80.9183 52° Northeast 479 887 33.000 -605 Level Jacksonville Center
Mon 19:03:43 34.3072 -80.7986 52° Northeast 479 887 31.800 -1.736 Descending Jacksonville Center
Mon 19:04:44 34.3928 -80.6733 50° Northeast 468 867 29.500 -2.182 Descending Jacksonville Center
Mon 19:06:39 34.5344 -80.4450 53° Northeast 475 880 25.400 -1.886 Descending Washington Center
Mon 19:07:39 34.6100 -80.3258 52° Northeast 461 855 24.000 -900 Descending Washington Center
Mon 19:08:39 34.6900 -80.2067 51° Northeast 454 840 23.600 -500 Descending Washington Center
Mon 19:09:39 34.7764 -80.0725 52° Northeast 454 840 23.000 -300 Descending Washington Center
Mon 19:10:39 34.8592 -79.9808 42° Northeast 448 830 23.000 -250 Level Washington Center
Mon 19:11:39 34.9506 -79.8769 43° Northeast 443 821 22.500 -700 Descending Washington Center
Mon 19:12:39 35.0436 -79.7778 41° Northeast 438 811 21.600 -1.000 Descending Washington Center
Mon 19:13:39 35.1261 -79.6881 42° Northeast 420 777 20.500 -1.250 Descending Washington Center
Mon 19:14:39 35.1997 -79.6081 42° Northeast 380 703 19.100 -1.300 Descending Washington Center
Mon 19:15:39 35.2747 -79.5483 33° Northeast 337 624 17.900 -1.541 Descending Washington Center
Mon 19:16:28 35.3453 -79.5033 27° Northeast 317 587 16.300 -2.050 Descending Washington Center
Mon 19:17:39 35.4308 -79.4386 32° Northeast 315 583 13.800 -2.409 Descending Washington Center
Mon 19:18:35 35.5078 -79.3811 31° Northeast 307 568 11.200 -2.244 Descending Washington Center
Mon 19:19:42 35.5583 -79.2967 54° Northeast 287 531 9.200 -1.790 Descending Washington Center
Mon 19:20:39 35.6025 -79.2144 57° Northeast 289 536 7.500 -1.670 Descending Washington Center
Mon 19:21:37 35.6361 -79.1419 60° Northeast 269 499 6.000 -1.300 Descending Washington Center
Mon 19:22:39 35.6714 -79.0744 57° Northeast 252 467 4.900 -1.190 Descending Washington Center
Mon 19:23:38 35.7069 -79.0017 59° Northeast 234 433 3.600 -950 Descending Washington Center
Mon 19:24:39 35.7547 -78.9347 49° Northeast 239 443 3.000 -694 Descending Washington Center
Mon 19:25:39 35.8000 -78.8803 44° Northeast 230 426 2.200 -887 Descending Washington Center
Mon 19:26:34 35.8325 -78.8356 48° Northeast 177 328 1.300 -826 Descending Washington Center
Mon 19:27:28 35.8561 -78.8108 40° Northeast 123 229 700 -667 Descending Washington Center
Mon 19:29:00 35.8667 -78.7833 51° Northeast  Level FlightAware Approximate

Login

Don't have an account? Register now (free) for customized features, flight alerts, and more!